Ceylon — 9VMU6 — position and weather

sailwx.info

Track history (hours):
 
Tides and Currents Weather Stations Pressure Air Temp Water Temp Dewpoint Dewpoint Depression Visibility Wind Speed Wind Dir Waves Ship Positions

Ceylon

Last reported at 2014-Sep-25 02:19 UTC. Time now 2014-Oct-01 12:24 UTC.
Position N 29°18' W 094°38'.

Length 180 m; draft 8.7 m.

Type: Tanker. MMSI: 563847000.

Date/timePositionNaut miles runAvg speedWind from/ knotsBaromVisibWave heightAir tempDewpointWater temp
2014-Sep-25 02:19N 29°18' W 094°38'910.6
2014-Sep-25 01:26N 29°22' W 094°48'1010.9
2014-Sep-25 00:33N 29°30' W 094°52'1110.6
2014-Sep-24 23:33N 29°39' W 094°58'8 8.2
2014-Sep-24 22:33N 29°46' W 095°04'1 0.0
2014-Sep-23 04:19N 29°45' W 095°06'1 1.1
2014-Sep-23 03:33N 29°44' W 095°07'6 5.6
2014-Sep-23 02:33N 29°44' W 095°13'0 0.0
2014-Sep-21 00:24N 29°44' W 095°13'1 1.2
2014-Sep-20 23:33N 29°43' W 095°14'5 4.8
2014-Sep-20 22:33N 29°44' W 095°09'6 5.7
2014-Sep-20 21:33N 29°44' W 095°02'9 9.0
2014-Sep-20 20:33N 29°36' W 094°57'1211.8
2014-Sep-20 19:33N 29°26' W 094°50'1210.6
2014-Sep-20 18:27N 29°19' W 094°39'  
Track history (hours):
 
Tides and Currents Weather Stations Pressure Air Temp Water Temp Dewpoint Dewpoint Depression Visibility Wind Speed Wind Dir Waves Ship Positions

Ceylon

Last reported at 2014-Sep-25 02:19 UTC. Time now 2014-Oct-01 12:24 UTC.
Position N 29°18' W 094°38'.

Length 180 m; draft 8.7 m.

Type: Tanker. MMSI: 563847000.

Date/timePositionNaut miles runAvg speedWind from/ knotsBaromVisibWave heightAir tempDewpointWater temp
2014-Sep-25 02:19N 29°18' W 094°38'910.6
2014-Sep-25 01:26N 29°22' W 094°48'1010.9
2014-Sep-25 00:33N 29°30' W 094°52'1110.6
2014-Sep-24 23:33N 29°39' W 094°58'8 8.2
2014-Sep-24 22:33N 29°46' W 095°04'1 0.0
2014-Sep-23 04:19N 29°45' W 095°06'1 1.1
2014-Sep-23 03:33N 29°44' W 095°07'6 5.6
2014-Sep-23 02:33N 29°44' W 095°13'0 0.0
2014-Sep-21 00:24N 29°44' W 095°13'1 1.2
2014-Sep-20 23:33N 29°43' W 095°14'5 4.8
2014-Sep-20 22:33N 29°44' W 095°09'6 5.7
2014-Sep-20 21:33N 29°44' W 095°02'9 9.0
2014-Sep-20 20:33N 29°36' W 094°57'1211.8
2014-Sep-20 19:33N 29°26' W 094°50'1210.6
2014-Sep-20 18:27N 29°19' W 094°39'  

Dump ship's entire track history